createdAt,value
2022-07-25T00:04:01.760Z,0.00
2022-07-25T00:05:01.779Z,0.00
2022-07-25T00:07:05.697Z,0.00
2022-07-25T00:08:05.682Z,0.00
2022-07-25T00:10:09.697Z,0.00
2022-07-25T00:11:09.683Z,0.00
2022-07-25T00:13:13.727Z,0.00
2022-07-25T00:14:13.718Z,0.00
2022-07-25T00:16:17.822Z,0.00
2022-07-25T00:17:17.735Z,0.00
2022-07-25T00:19:10.698Z,0.00
2022-07-25T00:20:10.693Z,0.00
2022-07-25T00:22:03.631Z,0.00
2022-07-25T00:23:03.622Z,0.00
2022-07-25T00:24:56.575Z,0.00
2022-07-25T00:25:56.570Z,0.00
2022-07-25T00:27:49.678Z,0.00
2022-07-25T00:28:49.677Z,0.00
2022-07-25T00:30:42.788Z,0.00
2022-07-25T00:31:42.857Z,0.00
2022-07-25T00:33:35.911Z,0.00
2022-07-25T00:34:35.903Z,0.00
2022-07-25T00:36:29.024Z,0.00
2022-07-25T00:37:29.011Z,0.00
2022-07-25T00:39:21.926Z,0.00
2022-07-25T00:40:21.919Z,0.00
2022-07-25T00:41:21.923Z,0.00
2022-07-25T00:42:21.918Z,0.00
2022-07-25T00:43:21.915Z,0.00
2022-07-25T00:44:21.913Z,0.00
2022-07-25T00:45:21.921Z,0.00
2022-07-25T00:46:21.972Z,0.00
2022-07-25T00:47:21.907Z,0.00
2022-07-25T00:48:21.906Z,0.00
2022-07-25T00:49:21.906Z,0.00
2022-07-25T00:50:21.910Z,0.00
2022-07-25T00:51:21.902Z,0.00
2022-07-25T00:52:21.900Z,0.00
2022-07-25T00:53:21.898Z,0.00
2022-07-25T00:54:21.905Z,0.00
2022-07-25T00:55:21.896Z,0.00
2022-07-25T00:56:21.894Z,0.00
2022-07-25T00:57:21.907Z,0.00
2022-07-25T00:58:21.892Z,0.00
2022-07-25T00:59:21.889Z,0.00
2022-07-25T01:00:21.888Z,0.00
2022-07-25T01:01:21.924Z,0.00
2022-07-25T01:02:21.924Z,0.00
2022-07-25T01:03:21.881Z,0.00
2022-07-25T01:04:21.887Z,0.00
2022-07-25T01:05:21.881Z,0.00
2022-07-25T01:06:21.883Z,0.00
2022-07-25T01:07:21.875Z,0.00
2022-07-25T01:08:21.876Z,0.00
2022-07-25T01:09:21.882Z,0.00
2022-07-25T01:10:21.871Z,0.00
2022-07-25T01:11:21.868Z,0.00
2022-07-25T01:12:21.874Z,0.00
2022-07-25T01:13:21.859Z,0.00
2022-07-25T01:14:21.865Z,0.00
2022-07-25T01:15:21.861Z,0.00
2022-07-25T01:16:21.909Z,0.00
2022-07-25T01:17:21.860Z,0.00
2022-07-25T01:18:21.859Z,0.00
2022-07-25T01:19:21.853Z,0.00
2022-07-25T01:20:21.862Z,0.00
2022-07-25T01:21:21.854Z,0.00
2022-07-25T01:22:21.856Z,0.00
2022-07-25T01:23:21.852Z,0.00
2022-07-25T01:24:21.855Z,0.00
2022-07-25T01:25:21.846Z,0.00
2022-07-25T01:26:21.842Z,0.00
2022-07-25T01:27:21.843Z,0.00
2022-07-25T01:28:21.840Z,0.00
2022-07-25T01:29:21.841Z,0.00
2022-07-25T01:30:21.838Z,0.00
2022-07-25T01:31:21.903Z,0.00
2022-07-25T01:32:21.834Z,0.00
2022-07-25T01:33:21.834Z,0.00
2022-07-25T01:34:21.832Z,0.00
2022-07-25T01:35:21.828Z,0.00
2022-07-25T01:36:21.838Z,0.00
2022-07-25T01:37:21.821Z,0.00
2022-07-25T01:38:21.825Z,0.00
2022-07-25T01:39:21.821Z,0.00
2022-07-25T01:40:21.818Z,0.00
2022-07-25T01:41:22.472Z,0.00
2022-07-25T01:42:21.818Z,0.00
2022-07-25T01:43:21.924Z,0.00
2022-07-25T01:44:21.827Z,0.00
2022-07-25T01:45:21.814Z,0.00
2022-07-25T01:46:21.927Z,0.00
2022-07-25T01:47:21.811Z,0.00
2022-07-25T01:48:21.803Z,0.00
2022-07-25T01:49:21.805Z,0.00
2022-07-25T01:50:21.803Z,0.00
2022-07-25T01:51:21.803Z,0.00
2022-07-25T01:52:21.800Z,0.00
2022-07-25T01:53:21.802Z,0.00
2022-07-25T01:54:21.797Z,0.00
2022-07-25T01:55:21.799Z,0.00
2022-07-25T01:56:22.462Z,0.00
2022-07-25T01:57:21.790Z,0.00
2022-07-25T01:58:21.791Z,0.00
2022-07-25T01:59:21.793Z,0.00
2022-07-25T02:00:21.782Z,0.00
2022-07-25T02:01:22.188Z,0.00
2022-07-25T02:02:21.784Z,0.00
2022-07-25T02:03:21.804Z,0.00
2022-07-25T02:04:21.808Z,0.00
2022-07-25T02:05:21.785Z,0.00
2022-07-25T02:08:32.610Z,0.00
2022-07-25T02:08:53.424Z,0.00
2022-07-25T02:10:57.447Z,0.00
2022-07-25T02:11:57.425Z,0.00
2022-07-25T02:13:50.354Z,0.00
2022-07-25T02:14:50.346Z,0.00
2022-07-25T02:17:05.531Z,0.00
2022-07-25T02:18:05.418Z,0.00
2022-07-25T02:20:09.450Z,0.00
2022-07-25T02:21:14.124Z,0.00
2022-07-25T02:23:02.558Z,0.00
2022-07-25T02:24:02.938Z,0.00
2022-07-25T02:26:06.560Z,0.00
2022-07-25T02:27:06.539Z,0.00
2022-07-25T02:28:59.456Z,0.00
2022-07-25T02:29:59.449Z,0.00
2022-07-25T02:32:03.475Z,0.00
2022-07-25T02:33:03.462Z,0.00
2022-07-25T02:34:56.394Z,0.00
2022-07-25T02:35:56.389Z,0.00
2022-07-25T02:37:49.521Z,0.00
2022-07-25T02:38:49.511Z,0.00
2022-07-25T02:40:42.622Z,0.00
2022-07-25T02:41:42.610Z,0.00
2022-07-25T02:43:35.572Z,0.00
2022-07-25T02:44:35.564Z,0.00
2022-07-25T02:45:35.598Z,0.00
2022-07-25T02:46:35.613Z,0.00
2022-07-25T02:47:35.559Z,0.00
2022-07-25T02:48:35.618Z,0.00
2022-07-25T02:49:35.557Z,0.00
2022-07-25T02:50:35.557Z,0.00
2022-07-25T02:51:35.549Z,0.00
2022-07-25T02:52:35.551Z,0.00
2022-07-25T02:53:55.931Z,0.00
2022-07-25T02:54:35.548Z,0.00
2022-07-25T02:55:35.544Z,0.00
2022-07-25T02:56:35.544Z,0.00
2022-07-25T02:57:35.539Z,0.00
2022-07-25T02:58:35.537Z,0.00
2022-07-25T02:59:35.537Z,0.00
2022-07-25T03:00:35.536Z,0.00
2022-07-25T03:01:35.593Z,0.00
2022-07-25T03:02:35.529Z,0.00
2022-07-25T03:03:35.555Z,0.00
2022-07-25T03:04:35.580Z,0.00
2022-07-25T03:05:35.524Z,0.00
2022-07-25T03:06:35.526Z,0.00
2022-07-25T03:07:35.517Z,0.00
2022-07-25T03:08:35.520Z,5.63
2022-07-25T03:09:35.521Z,5.63
2022-07-25T03:10:35.516Z,0.00
2022-07-25T03:11:35.509Z,5.63
2022-07-25T03:12:35.512Z,5.63
2022-07-25T03:13:35.504Z,5.63
2022-07-25T03:14:35.504Z,5.63
2022-07-25T03:15:35.503Z,5.63
2022-07-25T03:16:35.557Z,5.63
2022-07-25T03:17:35.500Z,5.63
2022-07-25T03:18:35.509Z,5.63
2022-07-25T03:19:35.495Z,5.63
2022-07-25T03:20:35.495Z,5.63
2022-07-25T03:21:35.493Z,5.63
2022-07-25T03:22:35.493Z,5.63
2022-07-25T03:23:35.487Z,11.25
2022-07-25T03:24:35.514Z,11.25
2022-07-25T03:25:35.481Z,11.25
2022-07-25T03:26:35.478Z,11.25
2022-07-25T03:27:35.477Z,16.88
2022-07-25T03:28:35.473Z,16.88
2022-07-25T03:29:35.483Z,16.88
2022-07-25T03:30:35.498Z,22.50
2022-07-25T03:31:35.516Z,22.50
2022-07-25T03:32:35.475Z,22.50
2022-07-25T03:33:35.465Z,22.50
2022-07-25T03:34:35.463Z,22.50
2022-07-25T03:35:35.467Z,22.50
2022-07-25T03:36:35.458Z,22.50
2022-07-25T03:37:35.456Z,28.13
2022-07-25T03:38:35.467Z,28.13
2022-07-25T03:39:35.451Z,28.13
2022-07-25T03:40:35.456Z,28.13
2022-07-25T03:41:35.447Z,33.75
2022-07-25T03:42:35.799Z,33.75
2022-07-25T03:43:35.449Z,33.75
2022-07-25T03:44:35.442Z,33.75
2022-07-25T03:45:35.489Z,33.75
2022-07-25T03:46:35.437Z,33.75
2022-07-25T03:47:35.431Z,39.38
2022-07-25T03:48:35.454Z,45.00
2022-07-25T03:49:35.431Z,50.63
2022-07-25T03:50:35.436Z,50.63
2022-07-25T03:51:35.426Z,50.63
2022-07-25T03:52:35.431Z,45.00
2022-07-25T03:53:35.425Z,39.38
2022-07-25T03:54:35.422Z,45.00
2022-07-25T03:55:35.424Z,45.00
2022-07-25T03:56:35.418Z,45.00
2022-07-25T03:57:35.414Z,50.63
2022-07-25T03:58:35.422Z,61.88
2022-07-25T03:59:35.417Z,78.75
2022-07-25T04:00:35.407Z,90.00
2022-07-25T04:01:35.479Z,90.00
2022-07-25T04:02:35.418Z,118.13
2022-07-25T04:03:35.407Z,140.63
2022-07-25T04:04:35.398Z,129.38
2022-07-25T04:05:35.401Z,106.88
2022-07-25T04:06:35.404Z,78.75
2022-07-25T04:07:35.394Z,67.50
2022-07-25T04:08:35.393Z,78.75
2022-07-25T04:09:35.395Z,106.88
2022-07-25T04:10:35.386Z,146.25
2022-07-25T04:11:35.385Z,185.63
2022-07-25T04:12:35.386Z,213.75
2022-07-25T04:13:35.386Z,219.38
2022-07-25T04:14:35.391Z,202.50
2022-07-25T04:15:35.377Z,174.38
2022-07-25T04:16:35.401Z,118.13
2022-07-25T04:17:35.378Z,106.88
2022-07-25T04:18:35.374Z,129.38
2022-07-25T04:19:35.371Z,157.50
2022-07-25T04:20:35.371Z,163.13
2022-07-25T04:21:35.368Z,146.25
2022-07-25T04:22:35.367Z,123.75
2022-07-25T04:23:35.362Z,174.38
2022-07-25T04:24:35.363Z,202.50
2022-07-25T04:25:35.359Z,202.50
2022-07-25T04:26:35.365Z,270.00
2022-07-25T04:27:35.358Z,286.88
2022-07-25T04:28:35.356Z,286.88
2022-07-25T04:29:35.361Z,286.88
2022-07-25T04:30:35.362Z,286.88
2022-07-25T04:31:35.400Z,275.63
2022-07-25T04:32:35.356Z,281.25
2022-07-25T04:33:35.345Z,292.50
2022-07-25T04:34:35.346Z,298.13
2022-07-25T04:35:35.347Z,303.75
2022-07-25T04:36:35.346Z,303.75
2022-07-25T04:37:35.346Z,236.25
2022-07-25T04:38:35.348Z,298.13
2022-07-25T04:39:35.340Z,309.38
2022-07-25T04:40:35.342Z,309.38
2022-07-25T04:41:35.355Z,315.00
2022-07-25T04:42:35.343Z,315.00
2022-07-25T04:43:35.341Z,309.38
2022-07-25T04:44:35.339Z,281.25
2022-07-25T04:45:35.374Z,303.75
2022-07-25T04:46:35.345Z,292.50
2022-07-25T04:47:35.332Z,303.75
2022-07-25T04:48:35.450Z,326.25
2022-07-25T04:49:35.337Z,331.88
2022-07-25T04:50:35.339Z,275.63
2022-07-25T04:51:35.338Z,331.88
2022-07-25T04:52:35.346Z,331.88
2022-07-25T04:53:35.336Z,337.50
2022-07-25T04:54:35.337Z,337.50
2022-07-25T04:55:35.342Z,337.50
2022-07-25T04:56:35.347Z,337.50
2022-07-25T04:57:35.336Z,337.50
2022-07-25T04:58:35.336Z,343.13
2022-07-25T04:59:35.340Z,337.50
2022-07-25T05:00:35.389Z,343.13
2022-07-25T05:01:35.500Z,343.13
2022-07-25T05:02:35.396Z,343.13
2022-07-25T05:03:35.338Z,348.75
2022-07-25T05:04:35.339Z,348.75
2022-07-25T05:05:35.342Z,348.75
2022-07-25T05:06:35.343Z,354.38
2022-07-25T05:07:35.346Z,348.75
2022-07-25T05:08:35.352Z,337.50
2022-07-25T05:09:35.344Z,320.63
2022-07-25T05:10:35.347Z,309.38
2022-07-25T05:11:35.347Z,292.50
2022-07-25T05:12:35.358Z,348.75
2022-07-25T05:13:35.350Z,360.00
2022-07-25T05:14:35.353Z,360.00
2022-07-25T05:15:35.350Z,360.00
2022-07-25T05:16:35.395Z,360.00
2022-07-25T05:17:35.356Z,354.38
2022-07-25T05:18:35.366Z,360.00
2022-07-25T05:19:35.356Z,354.38
2022-07-25T05:20:35.358Z,360.00
2022-07-25T05:21:35.363Z,360.00
2022-07-25T05:22:35.365Z,360.00
2022-07-25T05:23:35.367Z,360.00
2022-07-25T05:24:35.371Z,365.63
2022-07-25T05:25:35.372Z,365.63
2022-07-25T05:26:35.382Z,365.63
2022-07-25T05:27:35.382Z,365.63
2022-07-25T05:28:35.375Z,371.25
2022-07-25T05:29:35.379Z,371.25
2022-07-25T05:30:39.441Z,371.25
2022-07-25T05:31:35.441Z,371.25
2022-07-25T05:32:35.393Z,371.25
2022-07-25T05:33:35.388Z,376.88
2022-07-25T05:34:35.390Z,376.88
2022-07-25T05:35:35.393Z,376.88
2022-07-25T05:36:35.398Z,376.88
2022-07-25T05:37:35.400Z,376.88
2022-07-25T05:38:35.405Z,376.88
2022-07-25T05:39:35.397Z,376.88
2022-07-25T05:40:35.405Z,376.88
2022-07-25T05:41:35.402Z,376.88
2022-07-25T05:42:35.408Z,376.88
2022-07-25T05:43:35.413Z,376.88
2022-07-25T05:44:35.422Z,376.88
2022-07-25T05:45:35.417Z,376.88
2022-07-25T05:46:35.549Z,371.25
2022-07-25T05:47:35.423Z,343.13
2022-07-25T05:48:35.477Z,365.63
2022-07-25T05:49:35.433Z,365.63
2022-07-25T05:50:35.434Z,365.63
2022-07-25T05:51:35.436Z,365.63
2022-07-25T05:52:35.438Z,365.63
2022-07-25T05:53:35.445Z,365.63
2022-07-25T05:54:35.443Z,371.25
2022-07-25T05:55:35.459Z,371.25
2022-07-25T05:56:35.455Z,376.88
2022-07-25T05:57:35.463Z,382.50
2022-07-25T05:58:35.457Z,388.13
2022-07-25T05:59:35.460Z,393.75
2022-07-25T06:00:35.464Z,393.75
2022-07-25T06:01:35.516Z,388.13
2022-07-25T06:02:35.682Z,388.13
2022-07-25T06:03:35.473Z,388.13
2022-07-25T06:04:35.478Z,388.13
2022-07-25T06:05:35.482Z,388.13
2022-07-25T06:06:35.484Z,393.75
2022-07-25T06:07:35.486Z,399.38
2022-07-25T06:08:35.491Z,405.00
2022-07-25T06:09:35.495Z,416.25
2022-07-25T06:10:35.501Z,421.88
2022-07-25T06:11:35.501Z,427.50
2022-07-25T06:12:36.694Z,433.13
2022-07-25T06:13:35.511Z,438.75
2022-07-25T06:14:35.515Z,450.00
2022-07-25T06:15:35.518Z,455.63
2022-07-25T06:16:35.623Z,466.88
2022-07-25T06:17:35.539Z,483.75
2022-07-25T06:18:35.531Z,506.25
2022-07-25T06:19:35.536Z,540.00
2022-07-25T06:20:35.544Z,590.63
2022-07-25T06:21:35.548Z,725.63
2022-07-25T06:22:35.554Z,1226.25
2022-07-25T06:23:35.556Z,1659.38
2022-07-25T06:24:35.565Z,1698.75
2022-07-25T06:25:35.563Z,1704.38
2022-07-25T06:26:35.569Z,1783.13
2022-07-25T06:27:35.570Z,1946.25
2022-07-25T06:28:35.578Z,2070.00
2022-07-25T06:29:35.610Z,2064.38
2022-07-25T06:30:35.594Z,1996.88
2022-07-25T06:31:35.670Z,2002.50
2022-07-25T06:32:35.606Z,2137.50
2022-07-25T06:33:35.605Z,2250.00
2022-07-25T06:34:35.609Z,2182.50
2022-07-25T06:35:35.614Z,1991.25
2022-07-25T06:36:35.640Z,1861.88
2022-07-25T06:37:35.622Z,1850.63
2022-07-25T06:38:35.629Z,1918.13
2022-07-25T06:39:35.639Z,2041.88
2022-07-25T06:40:35.641Z,2137.50
2022-07-25T06:41:35.646Z,2137.50
2022-07-25T06:42:35.650Z,2086.88
2022-07-25T06:43:35.658Z,2002.50
2022-07-25T06:44:35.664Z,1963.13
2022-07-25T06:45:35.669Z,1968.75
2022-07-25T06:46:35.698Z,1963.13
2022-07-25T06:47:36.232Z,1980.00
2022-07-25T06:48:35.737Z,2030.63
2022-07-25T06:49:35.713Z,2098.13
2022-07-25T06:50:35.716Z,2205.00
2022-07-25T06:51:35.708Z,2289.38
2022-07-25T06:52:35.718Z,2266.88
2022-07-25T06:53:35.728Z,2193.75
2022-07-25T06:54:35.748Z,2182.50
2022-07-25T06:55:35.736Z,2255.63
2022-07-25T06:56:35.742Z,2368.13
2022-07-25T06:57:35.750Z,2401.88
2022-07-25T06:58:35.752Z,2345.63
2022-07-25T06:59:35.760Z,2278.13
2022-07-25T07:00:35.814Z,2278.13
2022-07-25T07:01:35.779Z,2283.75
2022-07-25T07:02:35.784Z,2289.38
2022-07-25T07:03:35.827Z,2328.75
2022-07-25T07:04:35.802Z,2446.88
2022-07-25T07:05:35.802Z,2581.88
2022-07-25T07:06:35.809Z,2632.50
2022-07-25T07:07:35.820Z,2610.00
2022-07-25T07:08:35.827Z,2559.38
2022-07-25T07:09:35.830Z,2486.25
2022-07-25T07:10:35.839Z,2418.75
2022-07-25T07:11:35.847Z,2401.88
2022-07-25T07:12:35.849Z,2452.50
2022-07-25T07:13:35.920Z,2542.50
2022-07-25T07:14:35.868Z,2604.38
2022-07-25T07:15:35.878Z,2587.50
2022-07-25T07:16:35.928Z,2576.25
2022-07-25T07:17:35.895Z,2587.50
2022-07-25T07:18:35.907Z,2638.13
2022-07-25T07:19:35.904Z,2666.25
2022-07-25T07:20:35.911Z,2638.13
2022-07-25T07:21:35.919Z,2570.63
2022-07-25T07:22:35.925Z,2491.88
2022-07-25T07:23:35.932Z,2480.63
2022-07-25T07:24:38.839Z,2536.88
2022-07-25T07:25:35.968Z,2593.13
2022-07-25T07:26:35.955Z,2598.75
2022-07-25T07:27:35.965Z,2565.00
2022-07-25T07:28:35.973Z,2548.13
2022-07-25T07:29:35.978Z,2553.75
2022-07-25T07:31:05.570Z,2570.63
2022-07-25T07:31:36.073Z,2514.38
2022-07-25T07:32:36.001Z,2435.63
2022-07-25T07:33:36.008Z,2407.50
2022-07-25T07:34:36.037Z,2446.88
2022-07-25T07:35:36.107Z,2542.50
2022-07-25T07:36:36.032Z,2683.13
2022-07-25T07:37:40.146Z,2790.00
2022-07-25T07:38:36.058Z,2863.13
2022-07-25T07:39:36.060Z,2908.13
2022-07-25T07:40:36.066Z,2891.25
2022-07-25T07:41:36.076Z,2835.00
2022-07-25T07:42:36.084Z,2801.25
2022-07-25T07:43:36.089Z,2846.25
2022-07-25T07:44:36.100Z,2953.13
2022-07-25T07:45:36.105Z,3071.25
2022-07-25T07:46:36.192Z,3088.13
2022-07-25T07:47:36.131Z,3020.63
2022-07-25T07:48:36.181Z,2998.13
2022-07-25T07:49:36.873Z,3043.13
2022-07-25T07:50:36.157Z,3121.88
2022-07-25T07:51:36.158Z,3195.00
2022-07-25T07:52:36.167Z,3183.75
2022-07-25T07:53:36.177Z,3020.63
2022-07-25T07:54:36.178Z,2733.75
2022-07-25T07:55:36.187Z,2480.63
2022-07-25T07:56:36.200Z,2407.50
2022-07-25T07:57:36.207Z,2553.75
2022-07-25T07:58:36.215Z,2829.38
2022-07-25T07:59:36.221Z,3031.88
2022-07-25T08:00:36.231Z,3105.00
2022-07-25T08:01:36.259Z,3060.00
2022-07-25T08:02:36.308Z,2992.50
2022-07-25T08:03:36.252Z,2953.13
2022-07-25T08:04:36.267Z,2913.75
2022-07-25T08:05:36.279Z,2885.63
2022-07-25T08:06:36.299Z,2863.13
2022-07-25T08:07:36.291Z,2812.50
2022-07-25T08:08:36.311Z,2773.13
2022-07-25T08:09:36.312Z,2722.50
2022-07-25T08:10:36.316Z,2722.50
2022-07-25T08:11:36.327Z,2812.50
2022-07-25T08:12:36.332Z,2913.75
2022-07-25T08:13:36.338Z,2998.13
2022-07-25T08:14:36.352Z,3093.75
2022-07-25T08:15:36.388Z,2227.50
2022-07-25T08:16:36.444Z,641.25
2022-07-25T08:17:36.376Z,315.00
2022-07-25T08:18:36.386Z,298.13
2022-07-25T08:19:36.393Z,286.88
2022-07-25T08:20:38.347Z,275.63
2022-07-25T08:21:36.411Z,275.63
2022-07-25T08:22:36.418Z,270.00
2022-07-25T08:23:36.428Z,264.38
2022-07-25T08:24:36.437Z,264.38
2022-07-25T08:25:36.445Z,258.75
2022-07-25T08:26:36.452Z,258.75
2022-07-25T08:27:36.460Z,258.75
2022-07-25T08:28:36.466Z,253.13
2022-07-25T08:29:36.473Z,253.13
2022-07-25T08:30:36.495Z,253.13
2022-07-25T08:31:36.606Z,253.13
2022-07-25T08:32:36.495Z,247.50
2022-07-25T08:33:36.507Z,247.50
2022-07-25T08:34:36.517Z,247.50
2022-07-25T08:35:36.517Z,247.50
2022-07-25T08:36:36.523Z,247.50
2022-07-25T08:37:36.532Z,247.50
2022-07-25T08:38:36.537Z,247.50
2022-07-25T08:39:36.544Z,247.50
2022-07-25T08:40:36.549Z,247.50
2022-07-25T08:41:36.554Z,247.50
2022-07-25T08:42:36.560Z,247.50
2022-07-25T08:43:36.566Z,247.50
2022-07-25T08:44:36.577Z,253.13
2022-07-25T08:45:36.577Z,275.63
2022-07-25T08:46:36.648Z,309.38
2022-07-25T08:47:36.588Z,433.13
2022-07-25T08:48:36.642Z,354.38
2022-07-25T08:49:36.601Z,298.13
2022-07-25T08:50:36.607Z,281.25
2022-07-25T08:51:36.609Z,275.63
2022-07-25T08:52:36.614Z,270.00
2022-07-25T08:53:36.667Z,270.00
2022-07-25T08:54:36.626Z,270.00
2022-07-25T08:55:36.632Z,270.00
2022-07-25T08:56:36.637Z,270.00
2022-07-25T08:57:36.638Z,275.63
2022-07-25T08:58:36.652Z,275.63
2022-07-25T08:59:36.654Z,275.63
2022-07-25T09:00:36.658Z,281.25
2022-07-25T09:01:36.737Z,281.25
2022-07-25T09:02:36.715Z,275.63
2022-07-25T09:03:36.697Z,275.63
2022-07-25T09:04:36.679Z,275.63
2022-07-25T09:05:37.017Z,264.38
2022-07-25T09:06:36.699Z,253.13
2022-07-25T09:07:36.696Z,253.13
2022-07-25T09:08:36.703Z,247.50
2022-07-25T09:09:36.711Z,247.50
2022-07-25T09:10:36.714Z,247.50
2022-07-25T09:11:36.720Z,241.88
2022-07-25T09:12:36.726Z,241.88
2022-07-25T09:13:36.735Z,241.88
2022-07-25T09:14:36.736Z,241.88
2022-07-25T09:15:36.811Z,241.88
2022-07-25T09:16:36.749Z,241.88
2022-07-25T09:17:36.755Z,241.88
2022-07-25T09:18:36.759Z,241.88
2022-07-25T09:19:36.759Z,241.88
2022-07-25T09:20:36.767Z,241.88
2022-07-25T09:21:36.769Z,241.88
2022-07-25T09:22:36.777Z,241.88
2022-07-25T09:23:36.778Z,236.25
2022-07-25T09:24:36.882Z,236.25
2022-07-25T09:25:36.793Z,236.25
2022-07-25T09:26:36.795Z,236.25
2022-07-25T09:27:36.795Z,236.25
2022-07-25T09:28:36.803Z,236.25
2022-07-25T09:29:36.806Z,236.25
2022-07-25T09:30:36.814Z,236.25
2022-07-25T09:31:36.888Z,236.25
2022-07-25T09:32:36.818Z,230.63
2022-07-25T09:33:36.825Z,230.63
2022-07-25T09:34:36.830Z,225.00
2022-07-25T09:35:36.831Z,225.00
2022-07-25T09:36:36.906Z,219.38
2022-07-25T09:37:36.841Z,219.38
2022-07-25T09:38:36.865Z,219.38
2022-07-25T09:39:38.739Z,225.00
2022-07-25T09:40:36.856Z,225.00
2022-07-25T09:41:36.860Z,225.00
2022-07-25T09:42:36.865Z,225.00
2022-07-25T09:43:36.867Z,225.00
2022-07-25T09:44:36.878Z,225.00
2022-07-25T09:45:36.877Z,225.00
2022-07-25T09:46:36.924Z,225.00
2022-07-25T09:47:36.891Z,225.00
2022-07-25T09:48:36.909Z,230.63
2022-07-25T09:49:36.890Z,230.63
2022-07-25T09:50:36.897Z,236.25
2022-07-25T09:51:36.901Z,236.25
2022-07-25T09:52:36.917Z,236.25
2022-07-25T09:53:36.908Z,230.63
2022-07-25T09:54:36.911Z,230.63
2022-07-25T09:55:36.922Z,230.63
2022-07-25T09:56:36.926Z,230.63
2022-07-25T09:57:36.934Z,230.63
2022-07-25T09:58:36.930Z,230.63
2022-07-25T09:59:36.932Z,230.63
2022-07-25T10:00:36.935Z,225.00
2022-07-25T10:01:37.027Z,225.00
2022-07-25T10:02:36.982Z,225.00
2022-07-25T10:03:36.947Z,225.00
2022-07-25T10:04:36.953Z,219.38
2022-07-25T10:05:36.955Z,219.38
2022-07-25T10:06:36.965Z,213.75
2022-07-25T10:07:36.960Z,213.75
2022-07-25T10:08:36.966Z,208.13
2022-07-25T10:09:36.966Z,208.13
2022-07-25T10:10:36.973Z,202.50
2022-07-25T10:11:36.976Z,202.50
2022-07-25T10:12:36.984Z,202.50
2022-07-25T10:13:36.987Z,202.50
2022-07-25T10:14:36.991Z,202.50
2022-07-25T10:15:36.997Z,202.50
2022-07-25T10:16:37.068Z,202.50
2022-07-25T10:17:36.999Z,202.50
2022-07-25T10:18:37.006Z,202.50
2022-07-25T10:19:37.009Z,202.50
2022-07-25T10:20:37.013Z,202.50
2022-07-25T10:21:37.019Z,202.50
2022-07-25T10:22:55.234Z,202.50
2022-07-25T10:23:37.030Z,213.75
2022-07-25T10:24:37.027Z,219.38
2022-07-25T10:25:37.032Z,219.38
2022-07-25T10:26:37.066Z,225.00
2022-07-25T10:27:37.042Z,230.63
2022-07-25T10:28:37.045Z,230.63
2022-07-25T10:29:37.049Z,230.63
2022-07-25T10:30:37.107Z,225.00
2022-07-25T10:31:37.054Z,225.00
2022-07-25T10:32:37.059Z,225.00
2022-07-25T10:33:37.067Z,230.63
2022-07-25T10:34:37.068Z,236.25
2022-07-25T10:35:37.075Z,236.25
2022-07-25T10:36:37.076Z,230.63
2022-07-25T10:37:37.080Z,225.00
2022-07-25T10:38:37.083Z,225.00
2022-07-25T10:39:37.098Z,225.00
2022-07-25T10:40:37.095Z,219.38
2022-07-25T10:41:37.094Z,219.38
2022-07-25T10:42:37.097Z,219.38
2022-07-25T10:43:37.101Z,219.38
2022-07-25T10:44:37.107Z,213.75
2022-07-25T10:45:38.482Z,213.75
2022-07-25T10:46:37.192Z,213.75
2022-07-25T10:47:37.128Z,213.75
2022-07-25T10:48:37.179Z,213.75
2022-07-25T10:49:37.512Z,213.75
2022-07-25T10:50:55.016Z,213.75
2022-07-25T10:51:41.600Z,213.75
2022-07-25T10:52:37.136Z,208.13
2022-07-25T10:53:37.145Z,208.13
2022-07-25T10:54:37.151Z,202.50
2022-07-25T10:55:37.164Z,208.13
2022-07-25T10:56:37.157Z,208.13
2022-07-25T10:57:49.588Z,208.13
2022-07-25T10:58:37.166Z,208.13
2022-07-25T10:59:37.164Z,202.50
2022-07-25T11:00:37.174Z,202.50
2022-07-25T11:01:37.213Z,202.50
2022-07-25T11:02:37.227Z,202.50
2022-07-25T11:03:37.199Z,202.50
2022-07-25T11:04:37.198Z,202.50
2022-07-25T11:05:37.194Z,202.50
2022-07-25T11:06:37.200Z,202.50
2022-07-25T11:07:37.214Z,202.50
2022-07-25T11:08:37.206Z,208.13
2022-07-25T11:09:37.215Z,202.50
2022-07-25T11:10:37.217Z,174.38
2022-07-25T11:11:37.220Z,163.13
2022-07-25T11:12:37.222Z,157.50
2022-07-25T11:13:37.230Z,219.38
2022-07-25T11:14:37.234Z,236.25
2022-07-25T11:15:37.244Z,292.50
2022-07-25T11:16:37.326Z,292.50
2022-07-25T11:17:37.242Z,286.88
2022-07-25T11:18:37.251Z,253.13
2022-07-25T11:19:37.250Z,208.13
2022-07-25T11:20:37.256Z,202.50
2022-07-25T11:21:37.262Z,258.75
2022-07-25T11:22:37.267Z,241.88
2022-07-25T11:23:37.269Z,236.25
2022-07-25T11:24:37.278Z,225.00
2022-07-25T11:25:37.280Z,225.00
2022-07-25T11:26:37.285Z,219.38
2022-07-25T11:27:37.288Z,247.50
2022-07-25T11:28:37.293Z,281.25
2022-07-25T11:29:37.297Z,258.75
2022-07-25T11:30:37.305Z,253.13
2022-07-25T11:31:37.339Z,264.38
2022-07-25T11:32:37.314Z,292.50
2022-07-25T11:33:38.871Z,270.00
2022-07-25T11:34:37.344Z,253.13
2022-07-25T11:35:37.328Z,230.63
2022-07-25T11:36:37.331Z,230.63
2022-07-25T11:37:37.337Z,202.50
2022-07-25T11:38:37.341Z,208.13
2022-07-25T11:39:37.347Z,219.38
2022-07-25T11:40:37.348Z,241.88
2022-07-25T11:41:37.358Z,281.25
2022-07-25T11:42:37.361Z,298.13
2022-07-25T11:43:37.367Z,343.13
2022-07-25T11:44:37.376Z,309.38
2022-07-25T11:45:37.465Z,270.00
2022-07-25T11:46:37.445Z,241.88
2022-07-25T11:47:37.384Z,241.88
2022-07-25T11:48:37.448Z,292.50
2022-07-25T11:49:37.393Z,253.13
2022-07-25T11:50:37.402Z,292.50
2022-07-25T11:51:37.403Z,292.50
2022-07-25T11:52:37.406Z,337.50
2022-07-25T11:53:37.410Z,275.63
2022-07-25T11:54:37.420Z,320.63
2022-07-25T11:55:37.425Z,303.75
2022-07-25T11:56:42.853Z,320.63
2022-07-25T11:57:37.436Z,309.38
2022-07-25T11:58:37.444Z,315.00
2022-07-25T11:59:37.444Z,292.50
2022-07-25T12:00:37.453Z,298.13
2022-07-25T12:01:37.453Z,326.25
2022-07-25T12:02:37.589Z,281.25
2022-07-25T12:03:37.544Z,270.00
2022-07-25T12:04:37.466Z,281.25
2022-07-25T12:05:37.473Z,303.75
2022-07-25T12:06:37.480Z,275.63
2022-07-25T12:07:37.483Z,270.00
2022-07-25T12:08:37.487Z,275.63
2022-07-25T12:09:37.495Z,275.63
2022-07-25T12:10:37.500Z,253.13
2022-07-25T12:11:37.504Z,230.63
2022-07-25T12:12:37.510Z,180.00
2022-07-25T12:13:37.513Z,174.38
2022-07-25T12:14:37.521Z,253.13
2022-07-25T12:15:37.525Z,281.25
2022-07-25T12:16:37.607Z,253.13
2022-07-25T12:17:37.539Z,253.13
2022-07-25T12:18:37.540Z,281.25
2022-07-25T12:19:37.549Z,247.50
2022-07-25T12:20:37.554Z,213.75
2022-07-25T12:21:37.558Z,208.13
2022-07-25T12:22:37.564Z,213.75
2022-07-25T12:23:37.569Z,219.38
2022-07-25T12:24:37.580Z,219.38
2022-07-25T12:25:37.582Z,208.13
2022-07-25T12:26:37.587Z,236.25
2022-07-25T12:27:37.590Z,230.63
2022-07-25T12:28:37.600Z,185.63
2022-07-25T12:29:37.604Z,225.00
2022-07-25T12:30:37.674Z,225.00
2022-07-25T12:31:37.613Z,225.00
2022-07-25T12:32:37.618Z,236.25
2022-07-25T12:33:37.632Z,230.63
2022-07-25T12:34:37.631Z,230.63
2022-07-25T12:35:37.651Z,230.63
2022-07-25T12:36:37.639Z,174.38
2022-07-25T12:37:37.643Z,168.75
2022-07-25T12:38:37.651Z,174.38
2022-07-25T12:39:37.655Z,180.00
2022-07-25T12:40:37.663Z,230.63
2022-07-25T12:41:37.670Z,292.50
2022-07-25T12:42:37.680Z,360.00
2022-07-25T12:43:37.678Z,343.13
2022-07-25T12:44:37.679Z,354.38
2022-07-25T12:45:37.756Z,309.38
2022-07-25T12:46:37.691Z,281.25
2022-07-25T12:47:37.702Z,298.13
2022-07-25T12:48:37.757Z,320.63
2022-07-25T12:49:37.729Z,303.75
2022-07-25T12:50:37.713Z,298.13
2022-07-25T12:51:37.720Z,270.00
2022-07-25T12:52:37.724Z,292.50
2022-07-25T12:53:41.995Z,281.25
2022-07-25T12:54:37.735Z,286.88
2022-07-25T12:55:37.741Z,292.50
2022-07-25T12:56:37.741Z,315.00
2022-07-25T12:57:37.757Z,292.50
2022-07-25T12:58:37.763Z,320.63
2022-07-25T12:59:37.763Z,298.13
2022-07-25T13:00:37.784Z,315.00
2022-07-25T13:01:37.905Z,298.13
2022-07-25T13:02:37.832Z,343.13
2022-07-25T13:03:37.786Z,371.25
2022-07-25T13:04:37.785Z,382.50
2022-07-25T13:05:37.809Z,421.88